Time;durP1;ratioP1;P1;durP2;ratioP2;P2;SDS_P1;SDS_P2;PMS_P1;PMS_P2;Temp;Humidity;BMP_temperature;BMP_pressure;BME280_temperature;BME280_humidity;BME280_pressure;Samples;Min_cycle;Max_cycle;Signal;HPM_P1;HPM_P2
2023/10/01 00:01:35;;;;;;;5.17;4.40;;;;;;;;;;5005844;28;20190;-57
2023/10/01 00:04:04;;;;;;;4.83;4.33;;;;;;;;;;5008823;28;20183;-55
2023/10/01 00:06:31;;;;;;;4.43;4.03;;;;;;;;;;5005976;28;20182;-57
2023/10/01 00:08:57;;;;;;;5.20;4.70;;;;;;;;;;5007888;28;20182;-56
2023/10/01 00:11:24;;;;;;;8.57;5.40;;;;;;;;;;5006851;28;20199;-54
2023/10/01 00:13:50;;;;;;;5.10;4.60;;;;;;;;;;5007848;28;20202;-54
2023/10/01 00:16:16;;;;;;;4.43;4.03;;;;;;;;;;5006966;28;20201;-54
2023/10/01 00:18:42;;;;;;;4.43;4.03;;;;;;;;;;5008280;28;20178;-55
2023/10/01 00:21:09;;;;;;;6.27;4.73;;;;;;;;;;5006706;28;20537;-54
2023/10/01 00:23:35;;;;;;;5.30;4.23;;;;;;;;;;5004433;28;20179;-54
2023/10/01 00:26:01;;;;;;;7.20;5.00;;;;;;;;;;5003350;28;20240;-54
2023/10/01 00:28:27;;;;;;;4.73;3.70;;;;;;;;;;5006796;28;20264;-55
2023/10/01 00:30:53;;;;;;;4.77;4.37;;;;;;;;;;5007136;28;20210;-54
2023/10/01 00:33:19;;;;;;;5.33;4.83;;;;;;;;;;5006433;28;20182;-54
2023/10/01 00:35:45;;;;;;;4.90;4.40;;;;;;;;;;5005178;28;20174;-54
2023/10/01 00:38:12;;;;;;;4.83;4.30;;;;;;;;;;5005278;28;20530;-54
2023/10/01 00:40:38;;;;;;;4.30;3.90;;;;;;;;;;5006111;28;20558;-54
2023/10/01 00:43:04;;;;;;;5.60;4.77;;;;;;;;;;5007132;28;20190;-55
2023/10/01 00:45:31;;;;;;;5.43;4.10;;;;;;;;;;5007630;28;20727;-54
2023/10/01 00:47:57;;;;;;;4.90;4.40;;;;;;;;;;5005194;28;20237;-54
2023/10/01 00:50:24;;;;;;;4.90;4.40;;;;;;;;;;5006425;28;20202;-55
2023/10/01 00:52:51;;;;;;;5.03;4.53;;;;;;;;;;5009101;28;20185;-54
2023/10/01 00:55:18;;;;;;;4.80;4.30;;;;;;;;;;5009490;28;20189;-54
2023/10/01 00:57:44;;;;;;;5.07;4.43;;;;;;;;;;5011061;28;20192;-54
2023/10/01 01:00:15;;;;;;;4.53;4.10;;;;;;;;;;5010442;28;20197;-55
2023/10/01 01:03:26;;;;;;;4.77;4.37;;;;;;;;;;5007494;28;20192;-54
2023/10/01 01:05:37;;;;;;;6.20;4.37;;;;;;;;;;4992917;28;20190;-55
2023/10/01 01:08:20;;;;;;;4.40;4.00;;;;;;;;;;5010012;28;20417;-53
2023/10/01 01:10:48;;;;;;;5.23;4.73;;;;;;;;;;5004771;28;20198;-54
2023/10/01 01:13:17;;;;;;;5.63;4.03;;;;;;;;;;5010400;28;20319;-61
2023/10/01 01:15:45;;;;;;;5.17;4.77;;;;;;;;;;5003682;28;20225;-54
2023/10/01 01:18:13;;;;;;;4.20;3.67;;;;;;;;;;5010301;28;20253;-54
2023/10/01 01:20:49;;;;;;;4.67;3.83;;;;;;;;;;5005201;28;20209;-54
2023/10/01 01:23:15;;;;;;;4.83;4.40;;;;;;;;;;5008234;28;20657;-54
2023/10/01 01:25:41;;;;;;;4.93;4.43;;;;;;;;;;5007314;28;20543;-54
2023/10/01 01:28:12;;;;;;;4.90;4.43;;;;;;;;;;5009823;28;20180;-54
2023/10/01 01:30:42;;;;;;;5.40;4.50;;;;;;;;;;5008132;28;20209;-53
2023/10/01 01:33:09;;;;;;;5.83;4.63;;;;;;;;;;5009353;28;20306;-54
2023/10/01 01:35:35;;;;;;;4.33;4.03;;;;;;;;;;5007039;28;20641;-54
2023/10/01 01:38:02;;;;;;;5.50;4.40;;;;;;;;;;5007417;28;20173;-54
2023/10/01 01:40:40;;;;;;;5.10;4.60;;;;;;;;;;5010761;28;20185;-54
2023/10/01 01:43:15;;;;;;;5.30;4.63;;;;;;;;;;5008251;28;20190;-54
2023/10/01 01:45:44;;;;;;;5.10;4.60;;;;;;;;;;5009110;28;20656;-54
2023/10/01 01:50:57;;;;;;;6.17;4.40;;;;;;;;;;5008788;28;20212;-54
2023/10/01 01:53:26;;;;;;;5.00;4.50;;;;;;;;;;5007457;28;20656;-54
2023/10/01 01:55:54;;;;;;;5.17;4.67;;;;;;;;;;5006751;28;20184;-56
2023/10/01 01:58:24;;;;;;;5.40;4.67;;;;;;;;;;5005668;28;20655;-56
2023/10/01 02:01:17;;;;;;;5.33;4.83;;;;;;;;;;5008535;28;20187;-56
2023/10/01 02:03:46;;;;;;;5.93;5.37;;;;;;;;;;5007915;28;20189;-57
2023/10/01 02:06:13;;;;;;;5.63;4.90;;;;;;;;;;5007967;28;20178;-56
2023/10/01 02:08:49;;;;;;;5.43;4.83;;;;;;;;;;5007681;28;20198;-57
2023/10/01 02:11:18;;;;;;;6.60;5.27;;;;;;;;;;5008133;28;20278;-57
2023/10/01 02:13:46;;;;;;;5.97;5.37;;;;;;;;;;5009032;28;20256;-56
2023/10/01 02:16:18;;;;;;;6.73;4.87;;;;;;;;;;5008019;28;20227;-56
2023/10/01 02:18:56;;;;;;;4.90;4.40;;;;;;;;;;5007280;28;20726;-56
2023/10/01 02:21:43;;;;;;;7.03;5.57;;;;;;;;;;5004869;28;20226;-56
2023/10/01 02:24:56;;;;;;;5.50;5.00;;;;;;;;;;5006411;28;20716;-56
2023/10/01 02:27:04;;;;;;;5.63;5.00;;;;;;;;;;4999778;28;20555;-57
2023/10/01 02:29:45;;;;;;;5.27;4.77;;;;;;;;;;5008099;28;20191;-56
2023/10/01 02:32:12;;;;;;;8.40;5.07;;;;;;;;;;5002509;28;20200;-57
2023/10/01 02:34:38;;;;;;;6.10;5.50;;;;;;;;;;5008738;28;20183;-57
2023/10/01 02:37:07;;;;;;;5.40;4.90;;;;;;;;;;4983131;28;20552;-56
2023/10/01 02:39:33;;;;;;;6.47;4.70;;;;;;;;;;5009060;28;20187;-56
2023/10/01 02:44:40;;;;;;;5.57;4.43;;;;;;;;;;5007714;28;20197;-57
2023/10/01 02:47:16;;;;;;;6.33;4.90;;;;;;;;;;5008538;28;20269;-56
2023/10/01 02:49:49;;;;;;;5.17;4.67;;;;;;;;;;5006948;28;20215;-56
2023/10/01 02:52:16;;;;;;;6.20;5.10;;;;;;;;;;4990662;28;20235;-57
2023/10/01 02:54:42;;;;;;;5.33;4.20;;;;;;;;;;5007954;28;20181;-57
2023/10/01 02:57:24;;;;;;;5.03;4.53;;;;;;;;;;5007826;28;20202;-56
2023/10/01 03:02:38;;;;;;;5.30;4.80;;;;;;;;;;5002368;28;20187;-57
2023/10/01 03:05:16;;;;;;;4.67;4.13;;;;;;;;;;5009422;28;20190;-57
2023/10/01 03:07:45;;;;;;;5.60;4.57;;;;;;;;;;5005997;28;20555;-57
2023/10/01 03:10:25;;;;;;;4.73;4.33;;;;;;;;;;5008643;28;20183;-57
2023/10/01 03:12:53;;;;;;;5.03;4.43;;;;;;;;;;5004112;28;20545;-57
2023/10/01 03:15:27;;;;;;;5.77;4.87;;;;;;;;;;5007938;28;20431;-57
2023/10/01 03:23:25;;;;;;;5.37;4.70;;;;;;;;;;5008440;28;20194;-55
2023/10/01 03:28:26;;;;;;;5.20;4.70;;;;;;;;;;5007946;28;20212;-54
2023/10/01 03:31:08;;;;;;;6.23;5.10;;;;;;;;;;5008142;28;20230;-54
2023/10/01 03:33:37;;;;;;;5.10;4.63;;;;;;;;;;5005670;28;20269;-55
2023/10/01 03:36:05;;;;;;;5.10;4.37;;;;;;;;;;5007180;28;20181;-54
2023/10/01 03:38:32;;;;;;;5.03;4.30;;;;;;;;;;5006684;28;20182;-54
2023/10/01 03:41:06;;;;;;;4.63;3.83;;;;;;;;;;5007394;28;20553;-54
2023/10/01 03:43:32;;;;;;;5.17;4.67;;;;;;;;;;5004328;28;20266;-54
2023/10/01 03:46:26;;;;;;;6.13;4.10;;;;;;;;;;5004030;28;20186;-54
2023/10/01 03:51:53;;;;;;;4.53;4.13;;;;;;;;;;5004241;28;20217;-54
2023/10/01 03:54:20;;;;;;;5.50;5.00;;;;;;;;;;5003318;28;20506;-54
2023/10/01 03:56:56;;;;;;;5.00;4.60;;;;;;;;;;5006538;28;20205;-54
2023/10/01 03:59:23;;;;;;;4.67;4.27;;;;;;;;;;5007147;28;20210;-54
2023/10/01 04:02:02;;;;;;;5.03;4.53;;;;;;;;;;5003075;28;20178;-54
2023/10/01 04:04:56;;;;;;;4.73;4.30;;;;;;;;;;5007767;28;20182;-54
2023/10/01 04:07:18;;;;;;;4.53;4.03;;;;;;;;;;5005893;28;21359;-54
2023/10/01 04:09:47;;;;;;;5.00;4.30;;;;;;;;;;5008672;28;20266;-54
2023/10/01 04:12:20;;;;;;;5.43;4.87;;;;;;;;;;5006196;28;20214;-54
2023/10/01 04:14:52;;;;;;;6.80;6.20;;;;;;;;;;5007035;28;20309;-54
2023/10/01 04:17:35;;;;;;;5.97;4.30;;;;;;;;;;5006831;28;20194;-54
2023/10/01 04:20:12;;;;;;;4.90;4.43;;;;;;;;;;5007835;28;20186;-54
2023/10/01 04:22:40;;;;;;;6.53;4.70;;;;;;;;;;5002475;28;20178;-54
2023/10/01 04:25:11;;;;;;;6.67;5.07;;;;;;;;;;5005985;28;20209;-54
2023/10/01 04:27:41;;;;;;;4.67;4.27;;;;;;;;;;5009075;28;20622;-53
2023/10/01 04:30:09;;;;;;;4.63;4.13;;;;;;;;;;5009733;28;20282;-53
2023/10/01 04:32:36;;;;;;;4.90;4.40;;;;;;;;;;5008139;28;20216;-53
2023/10/01 04:35:14;;;;;;;5.10;4.20;;;;;;;;;;5007721;28;20189;-54
2023/10/01 04:37:43;;;;;;;4.97;4.20;;;;;;;;;;5010410;28;20177;-53
2023/10/01 04:43:03;;;;;;;6.20;4.83;;;;;;;;;;5009354;28;20188;-54
2023/10/01 04:45:36;;;;;;;6.37;5.27;;;;;;;;;;5009192;28;20203;-53
2023/10/01 04:48:13;;;;;;;7.23;4.53;;;;;;;;;;5009462;28;20187;-53
2023/10/01 04:50:40;;;;;;;4.50;4.10;;;;;;;;;;5008334;28;20581;-53
2023/10/01 04:53:07;;;;;;;4.43;3.90;;;;;;;;;;5009388;28;20182;-54
2023/10/01 04:55:41;;;;;;;4.93;4.03;;;;;;;;;;5010829;28;20238;-54
2023/10/01 04:58:07;;;;;;;4.70;4.27;;;;;;;;;;5008336;28;20180;-53
2023/10/01 05:00:36;;;;;;;6.03;4.43;;;;;;;;;;5009212;28;20194;-53
2023/10/01 05:03:06;;;;;;;5.20;4.53;;;;;;;;;;5008537;28;20574;-53
2023/10/01 05:05:36;;;;;;;4.70;4.23;;;;;;;;;;5009705;28;20188;-54
2023/10/01 05:08:04;;;;;;;4.23;3.83;;;;;;;;;;5011223;28;20186;-53
2023/10/01 05:10:50;;;;;;;6.13;4.60;;;;;;;;;;5010501;28;20200;-54
2023/10/01 05:13:19;;;;;;;5.87;5.20;;;;;;;;;;5009914;28;20233;-54
2023/10/01 05:15:49;;;;;;;4.43;4.03;;;;;;;;;;5008577;28;20258;-53
2023/10/01 05:18:15;;;;;;;4.50;4.10;;;;;;;;;;5009557;28;20233;-54
2023/10/01 05:20:41;;;;;;;4.80;4.40;;;;;;;;;;5009878;28;20182;-53
2023/10/01 05:23:08;;;;;;;4.37;3.97;;;;;;;;;;5010774;28;20635;-54
2023/10/01 05:25:34;;;;;;;4.00;3.60;;;;;;;;;;5009604;28;20659;-54
2023/10/01 05:28:03;;;;;;;4.97;3.93;;;;;;;;;;5010938;28;20634;-53
2023/10/01 05:30:38;;;;;;;6.37;4.17;;;;;;;;;;5009314;28;20176;-54
2023/10/01 05:33:05;;;;;;;4.57;4.07;;;;;;;;;;5002689;28;20261;-53
2023/10/01 05:35:35;;;;;;;8.07;4.10;;;;;;;;;;5002809;28;20263;-53
2023/10/01 05:38:07;;;;;;;5.40;3.87;;;;;;;;;;5005116;28;20591;-56
2023/10/01 05:40:37;;;;;;;5.47;4.13;;;;;;;;;;5005049;28;20189;-56
2023/10/01 05:43:13;;;;;;;5.70;3.80;;;;;;;;;;5008326;28;20186;-56
2023/10/01 05:45:52;;;;;;;4.87;4.23;;;;;;;;;;5008669;28;20701;-59
2023/10/01 05:48:23;;;;;;;4.03;3.63;;;;;;;;;;5008664;28;20194;-56
2023/10/01 05:50:49;;;;;;;5.07;4.30;;;;;;;;;;5004927;28;20665;-58
2023/10/01 05:53:18;;;;;;;4.97;4.47;;;;;;;;;;5008712;28;20600;-59
2023/10/01 05:55:44;;;;;;;4.23;3.73;;;;;;;;;;5002867;28;20184;-59
2023/10/01 05:58:13;;;;;;;6.30;4.40;;;;;;;;;;5007103;28;20180;-58
2023/10/01 06:00:56;;;;;;;5.27;4.40;;;;;;;;;;5007174;28;20255;-58
2023/10/01 06:03:23;;;;;;;4.27;3.87;;;;;;;;;;5007119;28;20214;-57
2023/10/01 06:05:50;;;;;;;4.97;4.37;;;;;;;;;;5004387;28;20271;-62
2023/10/01 06:08:25;;;;;;;4.53;3.93;;;;;;;;;;5006676;28;20185;-58
2023/10/01 06:11:06;;;;;;;4.30;3.90;;;;;;;;;;5007236;28;20205;-57
2023/10/01 06:13:39;;;;;;;5.57;3.80;;;;;;;;;;5006801;28;20163;-58
2023/10/01 06:16:13;;;;;;;5.17;4.57;;;;;;;;;;5008313;28;20224;-67
2023/10/01 06:18:49;;;;;;;5.23;4.30;;;;;;;;;;5006640;28;20178;-57
2023/10/01 06:21:19;;;;;;;5.00;3.97;;;;;;;;;;5005683;28;20171;-58
2023/10/01 06:23:49;;;;;;;5.53;4.17;;;;;;;;;;5008025;28;20182;-58
2023/10/01 06:26:19;;;;;;;4.90;4.07;;;;;;;;;;5005731;28;20670;-58
2023/10/01 06:28:46;;;;;;;5.13;3.93;;;;;;;;;;4983248;28;20662;-58
2023/10/01 06:31:16;;;;;;;5.80;4.73;;;;;;;;;;5005419;28;20191;-58
2023/10/01 06:33:44;;;;;;;6.73;4.60;;;;;;;;;;5007797;28;20189;-58
2023/10/01 06:36:19;;;;;;;5.23;4.30;;;;;;;;;;5008413;28;20174;-57
2023/10/01 06:38:47;;;;;;;6.70;3.93;;;;;;;;;;5006888;28;20217;-58
2023/10/01 06:41:16;;;;;;;4.23;3.83;;;;;;;;;;5008195;28;20173;-58
2023/10/01 06:43:49;;;;;;;4.73;4.10;;;;;;;;;;5005594;28;20666;-58
2023/10/01 06:46:22;;;;;;;4.90;4.30;;;;;;;;;;5007387;28;20732;-58
2023/10/01 06:48:51;;;;;;;6.07;4.37;;;;;;;;;;5007471;28;20586;-55
2023/10/01 06:51:21;;;;;;;4.83;4.00;;;;;;;;;;5003252;28;20205;-56
2023/10/01 06:53:58;;;;;;;6.80;4.37;;;;;;;;;;5007198;28;20162;-56
2023/10/01 06:56:24;;;;;;;4.70;4.20;;;;;;;;;;4989296;28;20179;-55
2023/10/01 07:01:42;;;;;;;5.03;4.30;;;;;;;;;;5007091;28;20186;-56
2023/10/01 07:04:08;;;;;;;5.00;4.20;;;;;;;;;;5005482;28;20179;-55
2023/10/01 07:06:36;;;;;;;5.73;4.27;;;;;;;;;;5004304;28;20683;-56
2023/10/01 07:09:04;;;;;;;5.60;4.57;;;;;;;;;;5004855;28;20674;-55
2023/10/01 07:11:31;;;;;;;6.43;4.40;;;;;;;;;;5000458;28;20210;-56
2023/10/01 07:13:58;;;;;;;6.97;4.37;;;;;;;;;;5007560;28;20203;-55
2023/10/01 07:16:39;;;;;;;5.50;4.50;;;;;;;;;;5008690;28;20202;-55
2023/10/01 07:19:11;;;;;;;6.33;4.50;;;;;;;;;;5009839;28;20262;-55
2023/10/01 07:21:41;;;;;;;6.87;4.60;;;;;;;;;;5007299;28;20217;-55
2023/10/01 07:24:10;;;;;;;6.07;4.50;;;;;;;;;;5001521;28;20665;-56
2023/10/01 07:26:40;;;;;;;4.40;3.90;;;;;;;;;;5005898;28;20174;-55
2023/10/01 07:29:06;;;;;;;6.57;4.77;;;;;;;;;;5009277;28;20182;-56
2023/10/01 07:31:36;;;;;;;5.50;4.70;;;;;;;;;;5007656;28;20212;-55
2023/10/01 07:34:12;;;;;;;7.00;4.57;;;;;;;;;;5008608;28;20185;-55
2023/10/01 07:36:45;;;;;;;9.20;4.90;;;;;;;;;;5006804;28;20420;-55
2023/10/01 07:39:15;;;;;;;5.00;4.13;;;;;;;;;;5009255;28;20183;-55
2023/10/01 07:41:44;;;;;;;5.87;4.60;;;;;;;;;;5008183;28;20578;-56
2023/10/01 07:44:12;;;;;;;5.03;4.40;;;;;;;;;;5008181;28;20197;-54
2023/10/01 07:46:38;;;;;;;7.70;4.97;;;;;;;;;;5008384;28;20196;-54
2023/10/01 07:49:04;;;;;;;5.30;4.37;;;;;;;;;;5008397;28;20186;-54
2023/10/01 07:51:38;;;;;;;5.40;4.43;;;;;;;;;;5003619;28;20708;-55
2023/10/01 07:54:10;;;;;;;8.97;5.20;;;;;;;;;;5004413;28;20531;-57
2023/10/01 07:56:39;;;;;;;6.30;4.63;;;;;;;;;;5003621;28;20293;-54
2023/10/01 07:59:28;;;;;;;7.67;4.93;;;;;;;;;;5006781;28;20182;-56
2023/10/01 08:07:15;;;;;;;5.80;5.20;;;;;;;;;;5001342;28;20182;-57
2023/10/01 08:09:46;;;;;;;7.50;4.97;;;;;;;;;;5005386;28;20208;-58
2023/10/01 08:12:16;;;;;;;6.50;5.63;;;;;;;;;;5003956;28;20202;-59
2023/10/01 08:15:15;;;;;;;5.87;4.83;;;;;;;;;;5004820;28;20265;-54
2023/10/01 08:17:32;;;;;;;7.63;6.10;;;;;;;;;;5007485;28;20669;-54
2023/10/01 08:20:14;;;;;;;6.33;5.10;;;;;;;;;;5007919;28;20708;-53
2023/10/01 08:25:27;;;;;;;8.70;5.93;;;;;;;;;;5009464;28;20186;-54
2023/10/01 08:30:43;;;;;;;7.63;5.20;;;;;;;;;;5007499;28;20308;-56
2023/10/01 08:33:20;;;;;;;6.47;4.70;;;;;;;;;;5008993;28;20190;-56
2023/10/01 08:38:37;;;;;;;7.67;5.00;;;;;;;;;;5005060;28;20237;-57
2023/10/01 08:41:05;;;;;;;8.90;5.23;;;;;;;;;;5009585;28;20171;-55
2023/10/01 08:43:34;;;;;;;7.10;5.53;;;;;;;;;;5008283;28;20535;-56
2023/10/01 08:46:06;;;;;;;7.57;6.40;;;;;;;;;;5005847;28;20183;-53
2023/10/01 08:48:36;;;;;;;11.53;6.07;;;;;;;;;;5005884;28;20519;-54
2023/10/01 08:51:11;;;;;;;10.27;7.50;;;;;;;;;;5007440;28;20203;-54
2023/10/01 08:53:41;;;;;;;9.43;6.33;;;;;;;;;;5008280;28;20289;-55
2023/10/01 08:56:13;;;;;;;12.80;7.23;;;;;;;;;;5009652;28;20179;-55
2023/10/01 08:58:49;;;;;;;8.93;6.30;;;;;;;;;;5007496;28;20182;-57
2023/10/01 09:01:20;;;;;;;11.83;6.50;;;;;;;;;;5007400;28;20262;-58
2023/10/01 09:03:50;;;;;;;7.90;6.40;;;;;;;;;;5003603;28;20163;-56
2023/10/01 09:06:26;;;;;;;9.90;6.77;;;;;;;;;;5007915;28;20206;-56
2023/10/01 09:08:56;;;;;;;9.53;6.70;;;;;;;;;;5007765;28;20280;-57
2023/10/01 09:11:50;;;;;;;8.47;6.50;;;;;;;;;;5008574;28;20209;-57
2023/10/01 09:14:21;;;;;;;9.30;6.30;;;;;;;;;;5012738;28;20215;-58
2023/10/01 09:16:57;;;;;;;7.43;6.03;;;;;;;;;;5012804;28;20536;-57
2023/10/01 09:19:30;;;;;;;9.13;6.70;;;;;;;;;;5012765;28;20162;-57
2023/10/01 09:22:04;;;;;;;10.57;6.63;;;;;;;;;;5011350;28;20166;-57
2023/10/01 09:24:39;;;;;;;8.73;5.87;;;;;;;;;;5012684;28;20163;-57
2023/10/01 09:27:24;;;;;;;8.40;6.33;;;;;;;;;;5012665;28;20170;-57
2023/10/01 09:30:23;;;;;;;8.87;6.30;;;;;;;;;;5001610;28;20269;-58
2023/10/01 09:32:51;;;;;;;11.53;7.40;;;;;;;;;;5012164;28;20269;-59
2023/10/01 09:35:30;;;;;;;8.03;6.13;;;;;;;;;;5007973;28;20175;-59
2023/10/01 09:38:18;;;;;;;9.03;6.00;;;;;;;;;;4992354;28;20170;-60
2023/10/01 09:40:46;;;;;;;7.63;6.40;;;;;;;;;;4992803;28;20171;-58
2023/10/01 09:43:18;;;;;;;9.53;6.93;;;;;;;;;;5009238;28;20187;-59
2023/10/01 09:45:46;;;;;;;9.73;6.87;;;;;;;;;;4994804;28;20635;-59
2023/10/01 09:48:29;;;;;;;11.67;7.23;;;;;;;;;;5012174;28;20186;-60
2023/10/01 09:50:58;;;;;;;10.27;6.90;;;;;;;;;;5011514;28;20579;-59
2023/10/01 09:53:31;;;;;;;8.93;6.57;;;;;;;;;;5011662;28;20202;-58
2023/10/01 09:55:57;;;;;;;11.50;6.83;;;;;;;;;;5012144;28;20163;-59
2023/10/01 09:58:24;;;;;;;11.30;7.00;;;;;;;;;;5011325;28;20639;-57
2023/10/01 10:00:54;;;;;;;11.93;7.10;;;;;;;;;;5011317;28;20601;-56
2023/10/01 10:03:21;;;;;;;11.47;6.63;;;;;;;;;;5012044;28;20170;-59
2023/10/01 10:05:47;;;;;;;11.10;7.03;;;;;;;;;;5011407;28;20178;-57
2023/10/01 10:08:26;;;;;;;10.20;6.60;;;;;;;;;;5011408;28;20179;-58
2023/10/01 10:10:55;;;;;;;10.77;6.50;;;;;;;;;;5011477;28;20209;-59
2023/10/01 10:13:46;;;;;;;11.60;7.10;;;;;;;;;;5011439;28;20225;-58
2023/10/01 10:16:32;;;;;;;10.10;6.87;;;;;;;;;;5011402;28;20230;-59
2023/10/01 10:19:13;;;;;;;9.67;6.83;;;;;;;;;;5011762;28;20183;-58
2023/10/01 10:24:34;;;;;;;9.30;6.20;;;;;;;;;;5011099;28;20174;-58
2023/10/01 10:27:03;;;;;;;11.30;7.23;;;;;;;;;;5011413;28;20733;-58
2023/10/01 10:29:49;;;;;;;11.03;6.47;;;;;;;;;;5011751;28;20518;-58
2023/10/01 10:32:15;;;;;;;9.53;6.67;;;;;;;;;;5011193;28;20210;-58
2023/10/01 10:35:03;;;;;;;10.53;6.13;;;;;;;;;;5011119;28;20778;-59
2023/10/01 10:37:39;;;;;;;9.67;6.50;;;;;;;;;;5010574;28;20304;-59
2023/10/01 10:42:41;;;;;;;9.83;6.60;;;;;;;;;;5011018;28;20256;-53
2023/10/01 10:45:20;;;;;;;11.00;7.07;;;;;;;;;;5011358;28;20171;-55
2023/10/01 10:47:58;;;;;;;9.23;6.30;;;;;;;;;;5011542;28;20163;-62
2023/10/01 10:50:44;;;;;;;10.30;7.10;;;;;;;;;;4999812;28;20602;-55
2023/10/01 10:53:19;;;;;;;11.17;7.60;;;;;;;;;;4993665;28;20197;-53
2023/10/01 10:55:54;;;;;;;9.77;7.17;;;;;;;;;;4993113;28;20162;-55
2023/10/01 10:58:24;;;;;;;11.97;7.37;;;;;;;;;;5011108;28;20178;-59
2023/10/01 11:00:50;;;;;;;11.17;7.47;;;;;;;;;;5011227;28;20159;-53
2023/10/01 11:03:16;;;;;;;10.90;6.90;;;;;;;;;;5010702;28;20182;-54
2023/10/01 11:05:52;;;;;;;12.27;7.07;;;;;;;;;;5010385;28;20171;-53
2023/10/01 11:08:28;;;;;;;9.90;7.83;;;;;;;;;;5009952;28;20175;-54
2023/10/01 11:10:55;;;;;;;10.50;6.93;;;;;;;;;;5010948;28;20190;-54
2023/10/01 11:13:38;;;;;;;11.37;7.73;;;;;;;;;;5010376;28;20168;-54
2023/10/01 11:16:16;;;;;;;12.57;7.90;;;;;;;;;;4992459;28;20233;-54
2023/10/01 11:18:45;;;;;;;11.23;7.27;;;;;;;;;;5010370;28;20260;-53
2023/10/01 11:21:24;;;;;;;11.53;7.40;;;;;;;;;;5009773;28;20321;-54
2023/10/01 11:23:53;;;;;;;11.17;7.73;;;;;;;;;;5010987;28;20185;-55
2023/10/01 11:26:26;;;;;;;9.80;7.33;;;;;;;;;;5010303;28;20618;-56
2023/10/01 11:29:00;;;;;;;9.77;7.30;;;;;;;;;;4992930;28;20195;-56
2023/10/01 11:31:31;;;;;;;14.17;7.33;;;;;;;;;;5010299;28;20256;-58
2023/10/01 11:34:05;;;;;;;10.23;7.23;;;;;;;;;;5010421;28;20159;-57
2023/10/01 11:36:37;;;;;;;12.20;7.50;;;;;;;;;;5008993;28;20172;-57
2023/10/01 11:39:04;;;;;;;12.70;7.77;;;;;;;;;;5010683;28;20164;-58
2023/10/01 11:41:41;;;;;;;10.77;7.23;;;;;;;;;;5009645;28;20206;-57
2023/10/01 11:44:08;;;;;;;9.30;7.73;;;;;;;;;;5010814;28;20644;-58
2023/10/01 11:49:34;;;;;;;10.43;6.43;;;;;;;;;;5009799;28;20719;-58
2023/10/01 11:52:20;;;;;;;13.67;8.53;;;;;;;;;;5008609;28;20196;-57
2023/10/01 11:54:52;;;;;;;10.80;7.57;;;;;;;;;;4992524;28;20201;-58
2023/10/01 11:57:22;;;;;;;9.70;7.90;;;;;;;;;;5010014;28;20628;-58
2023/10/01 11:59:56;;;;;;;10.67;8.63;;;;;;;;;;5009802;28;20187;-58
2023/10/01 12:02:33;;;;;;;12.20;7.90;;;;;;;;;;5010332;28;20160;-58
2023/10/01 12:05:06;;;;;;;11.83;7.83;;;;;;;;;;5009081;28;20589;-58
2023/10/01 12:07:45;;;;;;;10.23;7.70;;;;;;;;;;5004864;28;20649;-58
2023/10/01 12:10:35;;;;;;;12.43;7.23;;;;;;;;;;4991151;28;20161;-57
2023/10/01 12:13:02;;;;;;;;;;;;;;;;;;4998816;28;20200;-58
2023/10/01 12:15:34;;;;;;;10.30;6.70;;;;;;;;;;5009000;28;20723;-58
2023/10/01 12:18:07;;;;;;;9.25;6.95;;;;;;;;;;5009347;28;20183;-58
2023/10/01 12:20:39;;;;;;;10.63;7.30;;;;;;;;;;5009360;28;20183;-57
2023/10/01 12:23:12;;;;;;;10.43;7.93;;;;;;;;;;5008960;28;20210;-58
2023/10/01 12:28:29;;;;;;;10.37;6.73;;;;;;;;;;5009739;28;20237;-58
2023/10/01 12:31:30;;;;;;;11.03;6.97;;;;;;;;;;5009326;28;20207;-58
2023/10/01 12:33:58;;;;;;;12.87;7.93;;;;;;;;;;5005659;28;20186;-57
2023/10/01 12:36:44;;;;;;;11.93;7.57;;;;;;;;;;5008462;28;20175;-57
2023/10/01 12:44:36;;;;;;;12.20;8.17;;;;;;;;;;4990590;28;20172;-58
2023/10/01 12:47:07;;;;;;;13.13;7.57;;;;;;;;;;5010401;28;20675;-58
2023/10/01 12:49:33;;;;;;;12.10;7.60;;;;;;;;;;5013611;28;20190;-61
2023/10/01 12:52:00;;;;;;;11.07;8.90;;;;;;;;;;5011592;28;20731;-59
2023/10/01 12:54:26;;;;;;;11.97;8.50;;;;;;;;;;5013485;28;20298;-58
2023/10/01 12:57:02;;;;;;;12.90;8.50;;;;;;;;;;5013283;28;20201;-58
2023/10/01 12:59:42;;;;;;;12.37;8.43;;;;;;;;;;5012768;28;20312;-58
2023/10/01 13:02:22;;;;;;;11.63;8.60;;;;;;;;;;5013322;28;20159;-54
2023/10/01 13:04:50;;;;;;;12.40;8.73;;;;;;;;;;5012775;28;20197;-55
2023/10/01 13:07:27;;;;;;;12.00;8.30;;;;;;;;;;5011469;28;20407;-55
2023/10/01 13:09:53;;;;;;;9.60;7.63;;;;;;;;;;5013158;28;20189;-55
2023/10/01 13:12:24;;;;;;;12.07;8.13;;;;;;;;;;5012367;28;20645;-55
2023/10/01 13:17:43;;;;;;;12.70;7.90;;;;;;;;;;5013160;28;20186;-55
2023/10/01 13:20:19;;;;;;;13.43;8.57;;;;;;;;;;5012697;28;20159;-56
2023/10/01 13:22:48;;;;;;;12.37;8.20;;;;;;;;;;5011466;28;20225;-57
2023/10/01 13:25:19;;;;;;;12.63;7.87;;;;;;;;;;5012817;28;20183;-56
2023/10/01 13:27:46;;;;;;;11.37;8.93;;;;;;;;;;5011905;28;20537;-56
2023/10/01 13:30:22;;;;;;;11.27;7.70;;;;;;;;;;5012926;28;20584;-56
2023/10/01 13:35:56;;;;;;;13.37;8.57;;;;;;;;;;4994686;28;20520;-56
2023/10/01 13:38:27;;;;;;;13.10;10.07;;;;;;;;;;5011244;28;20583;-55
2023/10/01 14:11:04;;;;;;;10.47;8.23;;;;;;;;;;5011369;28;20241;-56
2023/10/01 14:13:36;;;;;;;13.73;9.37;;;;;;;;;;4993550;28;20178;-56
2023/10/01 14:16:12;;;;;;;14.93;9.20;;;;;;;;;;5011575;28;20276;-55
2023/10/01 14:18:41;;;;;;;13.20;9.17;;;;;;;;;;5011434;28;20186;-56
2023/10/01 14:21:16;;;;;;;12.17;9.40;;;;;;;;;;4993827;28;20185;-55
2023/10/01 14:23:42;;;;;;;13.60;10.13;;;;;;;;;;5011907;28;20219;-55
2023/10/01 14:26:21;;;;;;;13.80;10.20;;;;;;;;;;5011064;28;20159;-54
2023/10/01 14:28:48;;;;;;;13.57;9.53;;;;;;;;;;5011897;28;20646;-56
2023/10/01 14:31:38;;;;;;;13.23;9.10;;;;;;;;;;5009638;28;20277;-60
2023/10/01 14:34:03;;;;;;;12.77;8.73;;;;;;;;;;5009492;28;20182;-56
2023/10/01 14:36:29;;;;;;;14.90;11.23;;;;;;;;;;5009879;28;20190;-56
2023/10/01 14:38:58;;;;;;;13.90;9.80;;;;;;;;;;5010919;28;20179;-58
2023/10/01 14:41:28;;;;;;;16.53;10.93;;;;;;;;;;5010517;28;20166;-59
2023/10/01 14:43:56;;;;;;;16.47;11.40;;;;;;;;;;5010831;28;20171;-59
2023/10/01 14:46:30;;;;;;;14.77;10.47;;;;;;;;;;5010660;28;20225;-59
2023/10/01 14:49:04;;;;;;;13.10;10.30;;;;;;;;;;5011068;28;20183;-58
2023/10/01 14:51:31;;;;;;;17.17;11.17;;;;;;;;;;5009365;28;20614;-56
2023/10/01 14:53:58;;;;;;;15.43;10.90;;;;;;;;;;5011234;28;20249;-57
2023/10/01 14:56:25;;;;;;;13.87;10.57;;;;;;;;;;5010114;28;20171;-56
2023/10/01 14:58:51;;;;;;;13.73;10.73;;;;;;;;;;5009743;28;20238;-57
2023/10/01 15:01:20;;;;;;;15.27;10.60;;;;;;;;;;5010396;28;20682;-56
2023/10/01 15:03:53;;;;;;;14.53;10.47;;;;;;;;;;5010583;28;20202;-56
2023/10/01 15:06:20;;;;;;;15.80;11.27;;;;;;;;;;5009398;28;20236;-56
2023/10/01 15:08:47;;;;;;;17.27;12.10;;;;;;;;;;5010541;28;20265;-56
2023/10/01 15:11:13;;;;;;;14.90;10.73;;;;;;;;;;5009753;28;20215;-56
2023/10/01 15:13:43;;;;;;;15.87;11.57;;;;;;;;;;4992099;28;20196;-56
2023/10/01 15:16:12;;;;;;;15.77;10.50;;;;;;;;;;5010234;28;20218;-56
2023/10/01 15:18:40;;;;;;;14.63;10.17;;;;;;;;;;5010278;28;20177;-56
2023/10/01 15:21:30;;;;;;;16.50;11.27;;;;;;;;;;5009484;28;20184;-56
2023/10/01 15:23:59;;;;;;;16.47;11.90;;;;;;;;;;5008549;28;20692;-57
2023/10/01 15:26:26;;;;;;;11.67;10.30;;;;;;;;;;5009951;28;20193;-61
2023/10/01 15:28:53;;;;;;;13.63;10.50;;;;;;;;;;5009488;28;20206;-58
2023/10/01 15:31:20;;;;;;;19.40;11.03;;;;;;;;;;5009894;28;20209;-57
2023/10/01 15:34:00;;;;;;;17.07;11.87;;;;;;;;;;5010785;28;20165;-58
2023/10/01 15:36:40;;;;;;;14.13;11.00;;;;;;;;;;5008151;28;20258;-57
2023/10/01 15:39:14;;;;;;;12.60;10.03;;;;;;;;;;4996899;28;20553;-57
2023/10/01 15:41:41;;;;;;;14.13;10.40;;;;;;;;;;5009216;28;20194;-58
2023/10/01 15:44:08;;;;;;;15.30;10.83;;;;;;;;;;5004529;28;20329;-58
2023/10/01 15:46:40;;;;;;;13.90;10.63;;;;;;;;;;5006092;28;20204;-58
2023/10/01 15:49:18;;;;;;;16.37;11.13;;;;;;;;;;5007017;28;20605;-58
2023/10/01 15:51:47;;;;;;;13.03;9.80;;;;;;;;;;4988370;28;20605;-55
2023/10/01 15:54:23;;;;;;;14.80;10.93;;;;;;;;;;5009540;28;20612;-55
2023/10/01 15:56:50;;;;;;;14.53;10.40;;;;;;;;;;5016321;28;20574;-55
2023/10/01 15:59:19;;;;;;;15.47;11.10;;;;;;;;;;5008999;28;20665;-55
2023/10/01 16:01:52;;;;;;;15.13;11.10;;;;;;;;;;5011829;28;20195;-56
2023/10/01 16:04:22;;;;;;;13.37;11.13;;;;;;;;;;5009169;28;20702;-55
2023/10/01 16:07:01;;;;;;;16.87;10.87;;;;;;;;;;5009135;28;20164;-54
2023/10/01 16:09:28;;;;;;;14.90;11.23;;;;;;;;;;5009639;28;20553;-54
2023/10/01 16:11:55;;;;;;;14.63;10.23;;;;;;;;;;5008469;28;20252;-55
2023/10/01 16:14:26;;;;;;;15.90;11.00;;;;;;;;;;4991306;28;20219;-55
2023/10/01 16:16:53;;;;;;;14.67;11.20;;;;;;;;;;5008801;28;20197;-55
2023/10/01 16:19:22;;;;;;;15.70;11.40;;;;;;;;;;5009418;28;20168;-55
2023/10/01 16:21:54;;;;;;;14.90;11.23;;;;;;;;;;5000436;28;20184;-55
2023/10/01 16:24:20;;;;;;;13.33;10.13;;;;;;;;;;5012268;28;20186;-55
2023/10/01 16:26:46;;;;;;;18.00;11.97;;;;;;;;;;5013071;28;20563;-55
2023/10/01 16:29:20;;;;;;;15.43;11.27;;;;;;;;;;5012531;28;20206;-55
2023/10/01 16:31:47;;;;;;;14.53;10.57;;;;;;;;;;5012461;28;20200;-55
2023/10/01 16:34:15;;;;;;;13.83;11.27;;;;;;;;;;5014489;28;20155;-55